»·PEaware :: AAL3034 KLAS-KSAN

AAL3034 :: KLAS-KSAN

FLIGHT INFORMATION

Flight Status: Arrived
Operator:
American Airlines
More flights by this operator :: More flights under this callsign
Pilot: Majd A. (32168)
Aircraft: BOEING 737-800
(B738)
More flights by this aircraft type
Origin: KLAS McCarran Intl
United States
Destination: KSAN San Diego Intl-Lindbergh
United States
More flights between these airports :: More routes between these airports
Route: BOACH8 LVELL LUCKI1
File this flight plan on PilotEdge
Remarks: RMK / SIMBRIEF
Altitude:
(Current/Filed)
34,000ft
Speed:
(Current/Filed)
449kts
Departed: 23-Oct-20 03:15 PM
Arrived: 23-Oct-20 04:01 PM
Distance/Time
Traveled:
225nm/0:46
Distance/Time
To Go:
Arrived

Flight Plot

Page will automatically refresh every two minutes.

Flight plan parsing failed; only flown route is shown


Map Options




Map Legend


Flown Route
Filed Route
Departure Airport
Arrival Airport
Navaid (VOR, NDB)
Fix

Horizontal Profiles

Position Reports

Time Latitude Longitude Heading Altitude Ground
Speed
23-Oct-20 14:42 36.079888 -115.139586 355 2076ft 0kts
23-Oct-20 14:43 36.079888 -115.139586 355 2076ft 0kts
23-Oct-20 14:44 36.079888 -115.139586 355 2076ft 0kts
23-Oct-20 14:45 36.079888 -115.139586 355 2076ft 0kts
23-Oct-20 14:46 36.079888 -115.139586 355 2076ft 0kts
23-Oct-20 14:47 36.079888 -115.139586 355 2076ft 0kts
23-Oct-20 14:48 36.079888 -115.139586 355 2076ft 0kts
23-Oct-20 14:49 36.079888 -115.139586 355 2076ft 0kts
23-Oct-20 14:50 36.079888 -115.139586 355 2076ft 0kts
23-Oct-20 14:51 36.079888 -115.139586 355 2076ft 0kts
23-Oct-20 14:52 36.079888 -115.139586 355 2076ft 0kts
23-Oct-20 14:53 36.079888 -115.139586 355 2076ft 0kts
23-Oct-20 14:54 36.079888 -115.139586 355 2076ft 0kts
23-Oct-20 14:55 36.079888 -115.139586 355 2076ft 0kts
23-Oct-20 14:56 36.079888 -115.139586 355 2076ft 0kts
23-Oct-20 14:57 36.079888 -115.139586 355 2076ft 0kts
23-Oct-20 14:58 36.079888 -115.139586 355 2076ft 0kts
23-Oct-20 14:59 36.079888 -115.139586 355 2076ft 0kts
23-Oct-20 15:00 36.079888 -115.139586 355 2076ft 0kts
23-Oct-20 15:01 36.079888 -115.139586 355 2076ft 0kts
23-Oct-20 15:02 36.079888 -115.139586 355 2076ft 0kts
23-Oct-20 15:03 36.079888 -115.139586 355 2076ft 0kts
23-Oct-20 15:04 36.079888 -115.139586 355 2076ft 0kts
23-Oct-20 15:05 36.079652 -115.139563 355 2077ft 2kts
23-Oct-20 15:06 36.079170 -115.139419 300 2078ft 2kts
23-Oct-20 15:07 36.079241 -115.139011 223 2076ft 0kts
23-Oct-20 15:08 36.079241 -115.139012 223 2076ft 0kts
23-Oct-20 15:09 36.079241 -115.139012 223 2076ft 0kts
23-Oct-20 15:10 36.079005 -115.139288 223 2078ft 6kts
23-Oct-20 15:11 36.078314 -115.134376 86 2065ft 36kts
23-Oct-20 15:12 36.078007 -115.122249 117 2039ft 13kts
23-Oct-20 15:13 36.077508 -115.121469 145 2039ft 0kts
23-Oct-20 15:14 36.076454 -115.123296 270 2042ft 53kts
23-Oct-20 15:15 36.076299 -115.177151 271 4385ft 185kts
23-Oct-20 15:16 36.060885 -115.254983 226 6897ft 283kts
23-Oct-20 15:17 35.984992 -115.294856 202 10597ft 292kts
23-Oct-20 15:18 35.895521 -115.310746 187 13405ft 343kts
23-Oct-20 15:19 35.795950 -115.308197 178 16805ft 362kts
23-Oct-20 15:20 35.691644 -115.296445 181 19813ft 376kts
23-Oct-20 15:21 35.583466 -115.298473 186 22489ft 389kts
23-Oct-20 15:22 35.473276 -115.302623 186 24825ft 402kts
23-Oct-20 15:23 35.360004 -115.307176 187 26886ft 414kts
23-Oct-20 15:24 35.242716 -115.311879 187 28732ft 426kts
23-Oct-20 15:25 35.122481 -115.316631 187 30755ft 428kts
23-Oct-20 15:26 35.004019 -115.321203 187 32857ft 423kts
23-Oct-20 15:27 34.885107 -115.325737 187 33916ft 427kts
23-Oct-20 15:28 34.767456 -115.345101 199 33918ft 414kts
23-Oct-20 15:29 34.657019 -115.386980 203 33943ft 413kts
23-Oct-20 15:30 34.548469 -115.433212 204 34018ft 412kts
23-Oct-20 15:31 34.439246 -115.480561 204 34027ft 412kts
23-Oct-20 15:32 34.332485 -115.531219 211 34028ft 408kts
23-Oct-20 15:33 34.231478 -115.599628 211 34026ft 408kts
23-Oct-20 15:34 34.125397 -115.654277 205 34027ft 411kts
23-Oct-20 15:35 34.017787 -115.705558 205 33985ft 412kts
23-Oct-20 15:36 33.933538 -115.745361 205 33913ft 412kts
23-Oct-20 15:38 33.826421 -115.797534 206 33225ft 414kts
23-Oct-20 15:39 33.718916 -115.849366 205 30804ft 419kts
23-Oct-20 15:40 33.610307 -115.900022 204 28115ft 403kts
23-Oct-20 15:41 33.516641 -115.963158 225 25909ft 378kts
23-Oct-20 15:42 33.447873 -116.063288 234 25875ft 387kts
23-Oct-20 15:43 33.387007 -116.165467 235 23658ft 367kts
23-Oct-20 15:44 33.320749 -116.255903 217 21319ft 357kts
23-Oct-20 15:45 33.233414 -116.310934 208 19112ft 347kts
23-Oct-20 15:46 33.146047 -116.362037 208 17078ft 345kts
23-Oct-20 15:47 33.060163 -116.412267 208 14900ft 334kts
23-Oct-20 15:48 32.982844 -116.467010 221 13674ft 317kts
23-Oct-20 15:49 32.916077 -116.534522 221 11892ft 307kts
23-Oct-20 15:50 32.851507 -116.599625 222 10206ft 286kts
23-Oct-20 15:51 32.790947 -116.660428 222 9101ft 281kts
23-Oct-20 15:52 32.746415 -116.735449 242 7560ft 258kts
23-Oct-20 15:53 32.712641 -116.807208 242 6201ft 230kts
23-Oct-20 15:53 32.692039 -116.867161 251 5094ft 224kts
23-Oct-20 15:55 32.675253 -116.947890 278 4178ft 209kts
23-Oct-20 15:55 32.687795 -117.001767 286 3423ft 191kts
23-Oct-20 15:57 32.704157 -117.068753 284 2222ft 167kts
23-Oct-20 15:57 32.714671 -117.112145 283 1288ft 157kts
23-Oct-20 15:59 32.726766 -117.162252 285 352ft 128kts
23-Oct-20 15:59 32.734470 -117.193545 286 27ft 52kts
23-Oct-20 16:00 32.734906 -117.199113 255 27ft 4kts
23-Oct-20 16:01 32.733705 -117.202447 198 27ft 14kts
23-Oct-20 16:02 32.732554 -117.203275 224 27ft 0kts
23-Oct-20 16:03 32.732554 -117.203275 224 27ft 0kts

Navigation Log

Ident Type
Flight plan parsing failed, navigation log unavailable